Time,TemperatureF,DewpointF,PressureIn,WindDirection,WindDirectionDegrees,WindSpeedMPH,WindSpeedGustMPH,Humidity,HourlyPrecipIn,Conditions,Clouds,dailyrainin,SoftwareType,DateUTC
2013-08-01 00:02:00,63.0,57.0,-100.00,SSW,205,4.0,4.0,82,0.00,,,0.00,,2013-08-01 05:02:00,
2013-08-01 02:02:00,59.0,57.0,-100.00,SSW,210,4.0,5.0,92,0.00,,,0.00,,2013-08-01 07:02:00,
2013-08-01 02:12:00,59.0,57.0,-100.00,SSW,200,4.0,6.0,91,0.00,,,0.00,,2013-08-01 07:12:00,
2013-08-01 02:23:00,60.0,57.0,-100.00,SW,215,5.0,6.0,91,0.00,,,0.00,,2013-08-01 07:23:00,
2013-08-01 02:32:00,60.0,57.0,-100.00,SW,215,5.0,6.0,91,0.00,,,0.00,,2013-08-01 07:32:00,
2013-08-01 02:53:00,60.0,57.0,-100.00,SW,215,5.0,6.0,91,0.00,,,0.00,,2013-08-01 07:53:00,
2013-08-01 03:26:00,59.0,57.0,-100.00,SSW,210,5.0,6.0,91,0.00,,,0.00,,2013-08-01 08:26:00,
2013-08-01 03:38:00,59.0,57.0,-100.00,SSW,210,5.0,6.0,91,0.00,,,0.00,,2013-08-01 08:38:00,
2013-08-01 03:45:00,59.0,57.0,-100.00,SSW,210,5.0,6.0,91,0.00,,,0.00,,2013-08-01 08:45:00,
2013-08-01 04:15:00,58.0,57.0,-100.00,SSW,210,5.0,6.0,93,0.00,,,0.00,,2013-08-01 09:15:00,
2013-08-01 04:33:00,58.0,57.0,-100.00,SW,215,5.0,7.0,94,0.00,,,0.00,,2013-08-01 09:33:00,
2013-08-01 04:50:00,58.0,57.0,-100.00,SW,215,5.0,7.0,94,0.00,,,0.00,,2013-08-01 09:50:00,
2013-08-01 05:29:00,56.0,55.0,-100.00,SSW,200,4.0,6.0,96,0.00,,,0.00,,2013-08-01 10:29:00,
2013-08-01 05:53:00,57.0,55.0,-100.00,SSW,210,4.0,6.0,97,0.00,,,0.00,,2013-08-01 10:53:00,
2013-08-01 06:13:00,56.0,55.0,-100.00,SSW,210,4.0,6.0,98,0.00,,,0.00,,2013-08-01 11:13:00,
2013-08-01 06:48:00,56.0,55.0,-100.00,SSW,200,4.0,6.0,98,0.00,,,0.00,,2013-08-01 11:48:00,
2013-08-01 07:01:00,56.0,55.0,-100.00,SSW,200,2.0,4.0,98,0.00,,,0.00,,2013-08-01 12:01:00,
2013-08-01 07:12:00,56.0,55.0,-100.00,SSW,210,3.0,4.0,98,0.00,,,0.00,,2013-08-01 12:12:00,
2013-08-01 07:20:00,57.0,57.0,-100.00,SSW,195,2.0,4.0,98,0.00,,,0.00,,2013-08-01 12:20:00,
2013-08-01 07:57:00,62.0,57.0,-100.00,SSW,205,1.0,2.0,87,0.00,,,0.00,,2013-08-01 12:57:00,
2013-08-01 09:14:00,69.0,57.0,-100.00,SE,135,2.0,3.0,67,0.00,,,0.00,,2013-08-01 14:14:00,
2013-08-01 10:13:00,71.0,52.0,-100.00,SSE,155,2.0,4.0,50,0.00,,,0.00,,2013-08-01 15:13:00,
2013-08-01 10:21:00,71.0,52.0,-100.00,SSE,155,2.0,4.0,50,0.00,,,0.00,,2013-08-01 15:21:00,
2013-08-01 13:18:00,78.0,54.0,-100.00,SE,135,6.0,11.0,42,0.00,,,0.00,,2013-08-01 18:18:00,
2013-08-01 13:49:00,78.0,52.0,-100.00,SE,140,3.0,9.0,40,0.00,,,0.00,,2013-08-01 18:49:00,
2013-08-01 13:55:00,78.0,52.0,-100.00,SE,140,3.0,9.0,40,0.00,,,0.00,,2013-08-01 18:55:00,
2013-08-01 14:31:00,78.0,57.0,-100.00,ESE,110,6.0,12.0,48,0.00,,,0.00,,2013-08-01 19:31:00,
2013-08-01 14:45:00,80.0,57.0,-100.00,ESE,115,9.0,12.0,46,0.00,,,0.00,,2013-08-01 19:45:00,
2013-08-01 15:19:00,80.0,57.0,-100.00,ESE,115,9.0,12.0,46,0.00,,,0.00,,2013-08-01 20:19:00,
2013-08-01 15:27:00,80.0,57.0,-100.00,ESE,115,9.0,12.0,46,0.00,,,0.00,,2013-08-01 20:27:00,
2013-08-01 15:38:00,80.0,57.0,-100.00,ESE,115,9.0,12.0,46,0.00,,,0.00,,2013-08-01 20:38:00,
2013-08-01 15:58:00,81.0,61.0,-100.00,ESE,115,7.0,12.0,48,0.00,,,0.00,,2013-08-01 20:58:00,
2013-08-01 16:03:00,81.0,61.0,-100.00,ESE,115,7.0,12.0,48,0.00,,,0.00,,2013-08-01 21:03:00,
2013-08-01 16:14:00,81.0,61.0,-100.00,ESE,115,7.0,12.0,48,0.00,,,0.00,,2013-08-01 21:14:00,
2013-08-01 16:27:00,81.0,61.0,-100.00,ESE,120,7.0,9.0,51,0.00,,,0.00,,2013-08-01 21:27:00,
2013-08-01 16:53:00,80.0,61.0,-100.00,SE,125,9.0,11.0,52,0.00,,,0.00,,2013-08-01 21:53:00,
2013-08-01 17:08:00,80.0,61.0,-100.00,SE,125,9.0,11.0,52,0.00,,,0.00,,2013-08-01 22:08:00,
2013-08-01 17:17:00,80.0,61.0,-100.00,SE,125,9.0,11.0,52,0.00,,,0.00,,2013-08-01 22:17:00,
2013-08-01 17:23:00,80.0,61.0,-100.00,SE,125,9.0,11.0,52,0.00,,,0.00,,2013-08-01 22:23:00,
2013-08-01 18:25:00,76.0,66.0,-100.00,SE,145,7.0,10.0,73,0.00,,,0.00,,2013-08-01 23:25:00,
2013-08-01 19:08:00,74.0,64.0,-100.00,ESE,120,9.0,13.0,71,0.00,,,0.00,,2013-08-02 00:08:00,
2013-08-01 19:37:00,73.0,63.0,-100.00,SE,135,9.0,11.0,72,0.00,,,0.00,,2013-08-02 00:37:00,
2013-08-01 19:55:00,73.0,63.0,-100.00,SE,125,7.0,14.0,71,0.00,,,0.00,,2013-08-02 00:55:00,
2013-08-01 20:03:00,73.0,64.0,-100.00,SSE,160,12.0,19.0,72,0.00,,,0.00,,2013-08-02 01:03:00,
2013-08-01 20:16:00,73.0,64.0,-100.00,SSE,160,12.0,19.0,72,0.00,,,0.00,,2013-08-02 01:16:00,
2013-08-01 20:38:00,72.0,63.0,-100.00,SSE,150,9.0,19.0,73,0.00,,,0.00,,2013-08-02 01:38:00,
2013-08-01 20:46:00,72.0,63.0,-100.00,SSE,150,9.0,19.0,73,0.00,,,0.00,,2013-08-02 01:46:00,
2013-08-01 20:55:00,70.0,63.0,-100.00,SSE,155,6.0,11.0,77,0.00,,,0.00,,2013-08-02 01:55:00,
2013-08-01 21:08:00,70.0,63.0,-100.00,SSE,155,6.0,11.0,77,0.00,,,0.00,,2013-08-02 02:08:00,
2013-08-01 21:16:00,70.0,63.0,-100.00,SSE,155,6.0,11.0,77,0.00,,,0.00,,2013-08-02 02:16:00,